createdAt,value
2019-02-05T00:01:52.282Z,13.36
2019-02-05T00:04:58.200Z,13.28
2019-02-05T00:08:05.022Z,13.22
2019-02-05T00:11:10.944Z,13.13
2019-02-05T00:14:16.659Z,13.20
2019-02-05T00:17:22.415Z,13.33
2019-02-05T00:20:29.235Z,13.25
2019-02-05T00:23:35.138Z,13.09
2019-02-05T00:26:41.267Z,13.11
2019-02-05T00:29:47.047Z,13.18
2019-02-05T00:32:52.827Z,13.07
2019-02-05T00:35:58.622Z,12.95
2019-02-05T00:39:06.659Z,12.72
2019-02-05T00:42:12.933Z,12.90
2019-02-05T00:45:19.043Z,13.11
2019-02-05T00:48:24.938Z,13.06
2019-02-05T00:51:30.733Z,13.07
2019-02-05T00:54:36.566Z,12.79
2019-02-05T00:57:42.536Z,12.91
2019-02-05T01:00:48.423Z,12.91
2019-02-05T01:03:54.182Z,13.03
2019-02-05T01:07:00.190Z,12.96
2019-02-05T01:10:07.480Z,12.48
2019-02-05T01:13:13.391Z,12.82
2019-02-05T01:16:19.286Z,12.80
2019-02-05T01:19:25.059Z,12.87
2019-02-05T01:22:30.946Z,12.98
2019-02-05T01:25:36.805Z,12.75
2019-02-05T01:28:42.669Z,12.86
2019-02-05T01:31:48.457Z,12.84
2019-02-05T01:34:54.400Z,12.66
2019-02-05T01:38:00.174Z,12.80
2019-02-05T01:41:06.032Z,12.25
2019-02-05T01:44:12.016Z,12.23
2019-02-05T01:47:17.833Z,12.25
2019-02-05T01:50:25.813Z,12.58
2019-02-05T01:53:32.619Z,12.49
2019-02-05T01:56:40.898Z,12.51
2019-02-05T01:59:45.862Z,12.60
2019-02-05T02:02:52.196Z,12.50
2019-02-05T02:05:58.098Z,12.28
2019-02-05T02:09:04.882Z,12.41
2019-02-05T02:12:11.685Z,12.23
2019-02-05T02:15:17.757Z,12.40
2019-02-05T02:18:23.586Z,12.55
2019-02-05T02:21:29.461Z,12.50
2019-02-05T02:24:35.333Z,12.44
2019-02-05T02:27:41.330Z,12.45
2019-02-05T02:30:47.190Z,12.61
2019-02-05T02:33:53.386Z,12.60
2019-02-05T02:36:59.184Z,12.64
2019-02-05T02:40:06.088Z,12.62
2019-02-05T02:43:11.898Z,12.59
2019-02-05T02:46:17.685Z,12.52
2019-02-05T02:49:23.467Z,12.53
2019-02-05T02:52:29.248Z,12.70
2019-02-05T02:55:35.278Z,12.35
2019-02-05T02:58:41.094Z,12.38
2019-02-05T03:01:46.893Z,12.41
2019-02-05T03:04:53.652Z,12.46
2019-02-05T03:08:00.445Z,12.37
2019-02-05T03:11:06.646Z,11.89
2019-02-05T03:14:13.293Z,12.10
2019-02-05T03:17:19.054Z,12.26
2019-02-05T03:20:24.846Z,12.22
2019-02-05T03:23:31.030Z,12.22
2019-02-05T03:26:37.092Z,11.97
2019-02-05T03:29:42.950Z,12.15
2019-02-05T03:32:49.665Z,12.00
2019-02-05T03:35:55.449Z,12.10
2019-02-05T03:39:01.243Z,11.76
2019-02-05T03:42:08.674Z,11.82
2019-02-05T03:45:14.637Z,11.85
2019-02-05T03:48:20.619Z,11.81
2019-02-05T03:52:09.541Z,11.70
2019-02-05T03:55:49.125Z,11.28
2019-02-05T03:59:23.082Z,11.69
2019-02-05T04:02:51.278Z,11.46
2019-02-05T04:06:26.550Z,11.22
2019-02-05T04:10:17.286Z,11.37
2019-02-05T04:14:05.309Z,11.62
2019-02-05T04:17:48.525Z,11.56
2019-02-05T04:21:53.117Z,11.65
2019-02-05T04:25:42.570Z,11.12
2019-02-05T04:29:23.498Z,11.49
2019-02-05T04:32:54.197Z,11.43
2019-02-05T04:36:35.512Z,11.39
2019-02-05T04:40:15.189Z,10.51
2019-02-05T04:43:53.093Z,10.73
2019-02-05T04:47:42.450Z,10.97
2019-02-05T04:51:25.257Z,11.15
2019-02-05T04:55:06.210Z,10.96
2019-02-05T04:59:08.160Z,11.14
2019-02-05T05:02:42.079Z,11.31
2019-02-05T05:06:19.993Z,11.38
2019-02-05T05:09:52.680Z,11.22
2019-02-05T05:12:58.847Z,11.00
2019-02-05T05:16:04.967Z,11.05
2019-02-05T05:19:11.235Z,11.13
2019-02-05T05:22:18.081Z,10.90
2019-02-05T05:25:24.448Z,10.43
2019-02-05T05:28:30.437Z,10.26
2019-02-05T05:31:36.414Z,10.75
2019-02-05T05:34:42.420Z,10.96
2019-02-05T05:37:48.249Z,11.01
2019-02-05T05:40:54.032Z,11.00
2019-02-05T05:43:59.799Z,11.29
2019-02-05T05:47:05.992Z,11.32
2019-02-05T05:50:14.282Z,11.33
2019-02-05T05:53:21.061Z,11.25
2019-02-05T05:56:26.851Z,11.40
2019-02-05T05:59:32.613Z,11.47
2019-02-05T06:02:39.922Z,11.66
2019-02-05T06:05:46.079Z,11.44
2019-02-05T06:08:52.502Z,11.28
2019-02-05T06:11:58.501Z,11.49
2019-02-05T06:15:04.987Z,11.64
2019-02-05T06:18:10.989Z,11.89
2019-02-05T06:21:16.820Z,11.67
2019-02-05T06:24:22.704Z,11.92
2019-02-05T06:27:28.642Z,11.96
2019-02-05T06:30:34.510Z,12.26
2019-02-05T06:33:40.392Z,12.32
2019-02-05T06:36:46.181Z,12.15
2019-02-05T06:39:52.019Z,12.29
2019-02-05T06:42:57.887Z,12.22
2019-02-05T06:46:03.790Z,12.58
2019-02-05T06:49:09.890Z,12.65
2019-02-05T06:52:15.663Z,12.84
2019-02-05T06:55:21.597Z,12.94
2019-02-05T06:58:27.372Z,13.04
2019-02-05T07:01:33.757Z,13.18
2019-02-05T07:04:39.524Z,13.46
2019-02-05T07:07:45.415Z,13.58
2019-02-05T07:10:51.641Z,13.99
2019-02-05T07:13:58.244Z,13.79
2019-02-05T07:17:04.357Z,14.04
2019-02-05T07:20:11.161Z,14.38
2019-02-05T07:23:17.096Z,14.50
2019-02-05T07:26:23.007Z,14.80
2019-02-05T07:29:28.951Z,14.93
2019-02-05T07:32:34.911Z,15.21
2019-02-05T07:35:40.792Z,15.20
2019-02-05T07:38:46.587Z,15.60
2019-02-05T07:41:52.480Z,15.52
2019-02-05T07:44:58.345Z,15.21
2019-02-05T07:48:04.424Z,15.41
2019-02-05T07:51:10.202Z,15.52
2019-02-05T07:54:15.971Z,16.02
2019-02-05T07:57:21.835Z,16.20
2019-02-05T08:00:28.850Z,16.76
2019-02-05T08:03:34.759Z,16.76
2019-02-05T08:06:40.652Z,17.11
2019-02-05T08:09:46.622Z,17.11
2019-02-05T08:12:52.555Z,17.26
2019-02-05T08:15:58.419Z,17.47
2019-02-05T08:19:04.502Z,16.95
2019-02-05T08:22:10.340Z,16.81
2019-02-05T08:25:16.554Z,16.81
2019-02-05T08:28:22.449Z,16.58
2019-02-05T08:31:28.274Z,16.85
2019-02-05T08:34:34.079Z,17.01
2019-02-05T08:37:39.881Z,16.92
2019-02-05T08:40:48.145Z,17.00
2019-02-05T08:43:54.270Z,17.00
2019-02-05T08:47:00.150Z,16.79
2019-02-05T08:50:07.881Z,16.94
2019-02-05T08:53:15.837Z,16.94
2019-02-05T08:56:21.644Z,17.26
2019-02-05T08:59:27.481Z,17.26
2019-02-05T09:02:33.606Z,17.14
2019-02-05T09:05:40.116Z,16.67
2019-02-05T09:08:46.235Z,17.26
2019-02-05T09:11:52.118Z,17.73
2019-02-05T09:14:58.310Z,17.43
2019-02-05T09:18:04.493Z,18.22
2019-02-05T09:21:10.301Z,18.41
2019-02-05T09:24:16.545Z,18.30
2019-02-05T09:27:22.406Z,18.61
2019-02-05T09:30:30.205Z,18.09
2019-02-05T09:33:37.079Z,18.66
2019-02-05T09:36:42.867Z,18.55
2019-02-05T09:39:48.630Z,19.05
2019-02-05T09:42:54.512Z,18.97
2019-02-05T09:46:00.443Z,18.81
2019-02-05T09:49:06.427Z,18.86
2019-02-05T09:52:12.196Z,19.03
2019-02-05T09:55:18.361Z,18.64
2019-02-05T09:58:24.219Z,18.36
2019-02-05T10:01:30.213Z,18.81
2019-02-05T10:04:36.014Z,19.57
2019-02-05T10:07:41.887Z,18.56
2019-02-05T10:10:47.685Z,18.54
2019-02-05T10:13:53.647Z,18.91
2019-02-05T10:16:59.467Z,19.25
2019-02-05T10:20:06.501Z,19.74
2019-02-05T10:23:12.700Z,19.55
2019-02-05T10:26:19.416Z,19.89
2019-02-05T10:29:25.147Z,20.01
2019-02-05T10:32:31.207Z,19.30
2019-02-05T10:35:37.133Z,18.56
2019-02-05T10:38:44.016Z,18.02
2019-02-05T10:41:49.738Z,18.72
2019-02-05T10:44:55.584Z,19.18
2019-02-05T10:48:01.473Z,19.39
2019-02-05T10:51:07.465Z,18.83
2019-02-05T10:54:13.231Z,19.16
2019-02-05T10:57:19.031Z,18.98
2019-02-05T11:00:27.409Z,19.51
2019-02-05T11:03:33.122Z,18.94
2019-02-05T11:06:38.858Z,19.16
2019-02-05T11:09:44.575Z,19.53
2019-02-05T11:12:50.294Z,19.64
2019-02-05T11:15:56.095Z,19.77
2019-02-05T11:19:01.835Z,20.06
2019-02-05T11:22:07.774Z,20.24
2019-02-05T11:25:13.888Z,20.04
2019-02-05T11:28:20.855Z,20.47
2019-02-05T11:34:50.420Z,19.34
2019-02-05T11:37:57.247Z,19.63
2019-02-05T11:41:03.083Z,19.89
2019-02-05T11:44:08.830Z,20.08
2019-02-05T11:47:14.764Z,19.12
2019-02-05T11:50:20.692Z,18.61
2019-02-05T11:53:26.920Z,19.30
2019-02-05T11:56:32.748Z,19.13
2019-02-05T11:59:38.459Z,19.45
2019-02-05T12:02:44.634Z,19.01
2019-02-05T12:05:50.371Z,19.23
2019-02-05T12:08:56.177Z,19.30
2019-02-05T12:12:02.360Z,18.75
2019-02-05T12:15:09.757Z,19.35
2019-02-05T12:18:15.819Z,19.40
2019-02-05T12:21:21.934Z,19.48
2019-02-05T12:24:27.747Z,19.49
2019-02-05T12:27:33.553Z,18.60
2019-02-05T12:30:44.902Z,18.63
2019-02-05T12:33:47.159Z,18.65
2019-02-05T12:36:52.984Z,19.05
2019-02-05T12:39:58.727Z,18.68
2019-02-05T12:43:05.291Z,18.64
2019-02-05T12:46:11.024Z,18.74
2019-02-05T12:49:16.937Z,18.50
2019-02-05T12:52:22.760Z,17.91
2019-02-05T12:55:28.718Z,18.54
2019-02-05T12:58:34.433Z,18.36
2019-02-05T13:01:40.265Z,18.60
2019-02-05T13:04:45.986Z,18.80
2019-02-05T13:07:51.804Z,18.24
2019-02-05T13:10:58.016Z,18.64
2019-02-05T13:14:03.932Z,17.93
2019-02-05T13:17:09.651Z,17.94
2019-02-05T13:20:19.554Z,18.10
2019-02-05T13:23:25.363Z,17.80
2019-02-05T13:26:31.213Z,17.37
2019-02-05T13:29:36.915Z,18.02
2019-02-05T13:32:42.919Z,17.69
2019-02-05T13:35:48.638Z,16.84
2019-02-05T13:38:54.383Z,17.21
2019-02-05T13:42:00.170Z,17.29
2019-02-05T13:45:07.428Z,17.49
2019-02-05T13:48:13.173Z,17.40
2019-02-05T13:51:18.865Z,17.66
2019-02-05T13:54:24.622Z,17.70
2019-02-05T13:57:30.373Z,17.88
2019-02-05T14:00:38.954Z,17.52
2019-02-05T14:03:46.784Z,18.07
2019-02-05T14:06:53.097Z,17.91
2019-02-05T14:09:58.917Z,17.79
2019-02-05T14:13:05.381Z,17.17
2019-02-05T14:16:11.327Z,17.10
2019-02-05T14:19:17.025Z,16.85
2019-02-05T14:22:22.751Z,16.67
2019-02-05T14:25:28.648Z,16.73
2019-02-05T14:28:34.379Z,16.40
2019-02-05T14:31:40.093Z,15.82
2019-02-05T14:34:45.809Z,15.76
2019-02-05T14:37:51.767Z,15.78
2019-02-05T14:40:57.640Z,15.56
2019-02-05T14:44:03.890Z,15.56
2019-02-05T14:47:09.633Z,15.50
2019-02-05T14:50:19.082Z,15.48
2019-02-05T14:53:24.934Z,15.33
2019-02-05T14:56:30.782Z,15.53
2019-02-05T14:59:36.563Z,15.18
2019-02-05T15:02:42.280Z,14.85
2019-02-05T15:05:49.089Z,14.85
2019-02-05T15:08:54.861Z,14.90
2019-02-05T15:12:00.638Z,14.85
2019-02-05T15:15:09.369Z,14.96
2019-02-05T15:18:17.663Z,14.69
2019-02-05T15:21:26.020Z,15.05
2019-02-05T15:24:38.012Z,14.62
2019-02-05T15:27:40.641Z,14.85
2019-02-05T15:30:46.442Z,14.68
2019-02-05T15:33:57.070Z,14.54
2019-02-05T15:37:02.787Z,14.09
2019-02-05T15:40:09.936Z,14.41
2019-02-05T15:43:15.773Z,14.16
2019-02-05T15:46:23.043Z,14.26
2019-02-05T15:49:29.240Z,14.09
2019-02-05T15:52:35.170Z,14.35
2019-02-05T15:55:41.118Z,14.46
2019-02-05T15:58:47.043Z,14.16
2019-02-05T16:01:52.872Z,14.20
2019-02-05T16:04:58.652Z,14.17
2019-02-05T16:08:04.929Z,14.03
2019-02-05T16:11:10.709Z,13.75
2019-02-05T16:14:16.477Z,13.80
2019-02-05T16:17:22.457Z,13.96
2019-02-05T16:20:28.786Z,13.97
2019-02-05T16:23:40.737Z,13.87
2019-02-05T16:26:46.584Z,13.49
2019-02-05T16:29:52.389Z,13.36
2019-02-05T16:32:58.249Z,13.58
2019-02-05T16:36:04.317Z,13.58
2019-02-05T16:39:11.581Z,13.18
2019-02-05T16:42:17.467Z,13.43
2019-02-05T16:45:25.370Z,13.41
2019-02-05T16:48:31.364Z,13.44
2019-02-05T16:51:37.095Z,13.48
2019-02-05T16:54:42.924Z,13.23
2019-02-05T16:57:48.802Z,13.38
2019-02-05T17:00:54.629Z,13.33
2019-02-05T17:04:00.355Z,13.01
2019-02-05T17:07:06.806Z,13.09
2019-02-05T17:10:13.769Z,13.14
2019-02-05T17:13:19.973Z,13.33
2019-02-05T17:16:25.860Z,13.34
2019-02-05T17:19:31.959Z,13.36
2019-02-05T17:22:38.808Z,13.46
2019-02-05T17:25:44.720Z,13.40
2019-02-05T17:28:50.464Z,13.21
2019-02-05T17:31:56.755Z,12.83
2019-02-05T17:35:02.681Z,13.13
2019-02-05T17:38:10.290Z,12.96
2019-02-05T17:41:16.189Z,12.94
2019-02-05T17:44:22.543Z,12.75
2019-02-05T17:47:28.278Z,12.81
2019-02-05T17:50:34.222Z,12.44
2019-02-05T17:53:41.265Z,12.40
2019-02-05T17:56:47.140Z,12.42
2019-02-05T17:59:52.897Z,12.23
2019-02-05T18:02:59.056Z,12.40
2019-02-05T18:06:05.403Z,12.22
2019-02-05T18:09:11.430Z,12.10
2019-02-05T18:12:17.166Z,12.15
2019-02-05T18:15:25.431Z,12.21
2019-02-05T18:18:31.145Z,12.04
2019-02-05T18:21:36.878Z,11.73
2019-02-05T18:24:42.619Z,11.84
2019-02-05T18:27:48.786Z,11.45
2019-02-05T18:30:54.509Z,11.84
2019-02-05T18:34:00.244Z,11.79
2019-02-05T18:37:06.106Z,11.76
2019-02-05T18:40:13.202Z,11.79
2019-02-05T18:43:18.943Z,11.74
2019-02-05T18:46:24.677Z,11.77
2019-02-05T18:49:30.522Z,11.56
2019-02-05T18:52:36.263Z,11.51
2019-02-05T18:55:42.512Z,11.56
2019-02-05T18:58:48.242Z,11.30
2019-02-05T19:01:53.971Z,11.29
2019-02-05T19:04:59.799Z,11.41
2019-02-05T19:08:06.635Z,11.58
2019-02-05T19:11:12.552Z,11.43
2019-02-05T19:14:18.389Z,11.40
2019-02-05T19:17:24.165Z,11.55
2019-02-05T19:20:31.607Z,11.56
2019-02-05T19:23:37.484Z,11.71
2019-02-05T19:26:48.878Z,11.80
2019-02-05T19:29:54.647Z,11.55
2019-02-05T19:33:00.449Z,11.54
2019-02-05T19:36:06.397Z,11.33
2019-02-05T19:39:12.162Z,11.00
2019-02-05T19:42:17.909Z,11.32
2019-02-05T19:45:45.703Z,11.14
2019-02-05T19:48:55.589Z,11.18
2019-02-05T19:52:02.605Z,11.45
2019-02-05T19:55:08.613Z,11.44
2019-02-05T19:58:14.937Z,11.83
2019-02-05T20:01:20.681Z,11.90
2019-02-05T20:04:26.408Z,12.04
2019-02-05T20:07:32.214Z,11.72
2019-02-05T20:10:38.056Z,11.89
2019-02-05T20:13:43.821Z,11.81
2019-02-05T20:16:49.523Z,12.09
2019-02-05T20:19:55.273Z,12.12
2019-02-05T20:23:01.048Z,12.03
2019-02-05T20:26:06.978Z,12.07
2019-02-05T20:29:13.168Z,12.12
2019-02-05T20:32:18.968Z,12.12
2019-02-05T20:35:24.868Z,12.10
2019-02-05T20:38:31.143Z,12.49
2019-02-05T20:41:36.935Z,12.55
2019-02-05T20:44:42.758Z,12.11
2019-02-05T20:47:48.626Z,12.72
2019-02-05T20:50:54.628Z,12.41
2019-02-05T20:54:00.411Z,12.54
2019-02-05T20:57:06.284Z,12.57
2019-02-05T21:00:18.271Z,12.41
2019-02-05T21:03:24.071Z,12.26
2019-02-05T21:06:29.918Z,12.15
2019-02-05T21:09:35.832Z,12.09
2019-02-05T21:12:41.626Z,12.15
2019-02-05T21:15:47.613Z,12.24
2019-02-05T21:18:53.373Z,12.40
2019-02-05T21:21:59.294Z,12.30
2019-02-05T21:25:06.406Z,12.46
2019-02-05T21:28:12.641Z,12.46
2019-02-05T21:31:18.431Z,12.12
2019-02-05T21:34:24.206Z,12.16
2019-02-05T21:37:30.256Z,12.10
2019-02-05T21:40:36.098Z,11.71
2019-02-05T21:43:41.969Z,11.40
2019-02-05T21:46:47.820Z,11.42
2019-02-05T21:49:53.700Z,11.59
2019-02-05T21:52:59.678Z,11.55
2019-02-05T21:56:05.681Z,11.48
2019-02-05T21:59:11.647Z,11.47
2019-02-05T22:02:17.423Z,11.15
2019-02-05T22:05:23.509Z,11.34
2019-02-05T22:08:29.487Z,11.40
2019-02-05T22:11:35.244Z,11.24
2019-02-05T22:14:41.046Z,11.08
2019-02-05T22:17:47.286Z,10.87
2019-02-05T22:20:53.092Z,10.60
2019-02-05T22:23:59.072Z,10.62
2019-02-05T22:27:07.772Z,10.63
2019-02-05T22:30:18.005Z,10.90
2019-02-05T22:33:23.985Z,10.89
2019-02-05T22:36:30.319Z,10.95
2019-02-05T22:39:36.171Z,10.74
2019-02-05T22:42:43.165Z,10.82
2019-02-05T22:45:49.005Z,10.73
2019-02-05T22:48:54.839Z,10.45
2019-02-05T22:52:00.653Z,10.48
2019-02-05T22:55:07.052Z,10.23
2019-02-05T22:58:13.022Z,10.43
2019-02-05T23:01:46.788Z,10.56
2019-02-05T23:05:42.329Z,10.27
2019-02-05T23:08:48.211Z,10.87
2019-02-05T23:12:33.882Z,10.63
2019-02-05T23:15:42.911Z,10.68
2019-02-05T23:18:49.096Z,10.63
2019-02-05T23:21:55.073Z,10.70
2019-02-05T23:25:00.943Z,10.72
2019-02-05T23:28:07.471Z,10.27
2019-02-05T23:31:13.491Z,10.38
2019-02-05T23:34:19.243Z,10.39
2019-02-05T23:37:25.059Z,10.49
2019-02-05T23:40:31.091Z,10.41
2019-02-05T23:43:37.040Z,10.47
2019-02-05T23:46:43.580Z,10.21
2019-02-05T23:49:49.718Z,10.43
2019-02-05T23:52:55.633Z,10.34
2019-02-05T23:56:01.393Z,10.59
2019-02-05T23:59:07.631Z,10.55
